Time;durP1;ratioP1;P1;durP2;ratioP2;P2;SDS_P1;SDS_P2;PMS_P1;PMS_P2;Temp;Humidity;BMP_temperature;BMP_pressure;BME280_temperature;BME280_humidity;BME280_pressure;Samples;Min_cycle;Max_cycle;Signal;HPM_P1;HPM_P2
2023/09/02 00:00:13;;;;;;;7.78;1.50;;;;;;;;;;4943044;28;20202;-61
2023/09/02 00:02:40;;;;;;;2.17;1.05;;;;;;;;;;4949121;28;20787;-61
2023/09/02 00:05:07;;;;;;;3.63;1.00;;;;;;;;;;4948926;28;20309;-61
2023/09/02 00:07:34;;;;;;;7.88;1.10;;;;;;;;;;4962828;28;20210;-61
2023/09/02 00:10:02;;;;;;;1.15;1.00;;;;;;;;;;4962937;28;20210;-61
2023/09/02 00:12:29;;;;;;;1.38;1.33;;;;;;;;;;4961273;28;20237;-61
2023/09/02 00:14:57;;;;;;;1.38;1.27;;;;;;;;;;4946276;28;20288;-61
2023/09/02 00:17:24;;;;;;;1.40;1.17;;;;;;;;;;4951708;28;20670;-61
2023/09/02 00:19:51;;;;;;;1.15;1.00;;;;;;;;;;4946516;28;20218;-61
2023/09/02 00:22:18;;;;;;;6.90;1.27;;;;;;;;;;4958848;28;20206;-61
2023/09/02 00:24:45;;;;;;;1.52;1.13;;;;;;;;;;4957629;28;20203;-61
2023/09/02 00:27:13;;;;;;;2.60;1.75;;;;;;;;;;4947488;28;20727;-61
2023/09/02 00:29:40;;;;;;;1.25;1.25;;;;;;;;;;4962224;28;20230;-61
2023/09/02 00:32:08;;;;;;;1.05;1.05;;;;;;;;;;4952544;28;20241;-61
2023/09/02 00:34:35;;;;;;;4.15;1.02;;;;;;;;;;4955503;28;20218;-61
2023/09/02 00:37:02;;;;;;;1.90;1.00;;;;;;;;;;4949092;28;20203;-61
2023/09/02 00:39:29;;;;;;;2.47;1.10;;;;;;;;;;4947515;28;20710;-60
2023/09/02 00:41:57;;;;;;;0.95;0.77;;;;;;;;;;4945416;28;20213;-61
2023/09/02 00:44:25;;;;;;;5.88;1.30;;;;;;;;;;4941632;28;20203;-61
2023/09/02 00:46:52;;;;;;;4.25;1.02;;;;;;;;;;4956739;28;20206;-60
2023/09/02 00:49:21;;;;;;;2.38;1.13;;;;;;;;;;4933598;28;20226;-61
2023/09/02 00:51:48;;;;;;;1.50;0.90;;;;;;;;;;4950853;28;20230;-61
2023/09/02 00:54:15;;;;;;;2.72;1.10;;;;;;;;;;4948173;28;20261;-61
2023/09/02 00:56:43;;;;;;;1.88;1.02;;;;;;;;;;4953498;28;20802;-61
2023/09/02 00:59:10;;;;;;;0.82;0.82;;;;;;;;;;4944511;28;20206;-61
2023/09/02 01:01:37;;;;;;;1.13;1.05;;;;;;;;;;4945677;28;20207;-61
2023/09/02 01:04:04;;;;;;;2.28;1.08;;;;;;;;;;4950316;28;20206;-61
2023/09/02 01:06:35;;;;;;;3.25;0.90;;;;;;;;;;4952197;28;20648;-61
2023/09/02 01:09:03;;;;;;;2.15;1.00;;;;;;;;;;4949677;28;20242;-61
2023/09/02 01:11:30;;;;;;;1.08;1.08;;;;;;;;;;4949268;28;20309;-61
2023/09/02 01:13:58;;;;;;;0.82;0.82;;;;;;;;;;4961510;28;20220;-61
2023/09/02 01:16:25;;;;;;;2.83;0.70;;;;;;;;;;4943897;28;20215;-60
2023/09/02 01:18:52;;;;;;;1.02;0.88;;;;;;;;;;4958958;28;20213;-60
2023/09/02 01:21:29;;;;;;;2.20;1.20;;;;;;;;;;4943475;28;20206;-61
2023/09/02 01:24:15;;;;;;;4.47;0.93;;;;;;;;;;4951257;28;20244;-61
2023/09/02 01:27:03;;;;;;;1.80;1.13;;;;;;;;;;4949738;28;20206;-61
2023/09/02 01:29:33;;;;;;;1.02;1.00;;;;;;;;;;4949978;28;20670;-61
2023/09/02 01:32:02;;;;;;;0.90;0.90;;;;;;;;;;4948087;28;20231;-61
2023/09/02 01:34:30;;;;;;;1.15;1.00;;;;;;;;;;4957861;28;20202;-61
2023/09/02 01:36:57;;;;;;;2.15;1.10;;;;;;;;;;4966264;28;20214;-61
2023/09/02 01:39:26;;;;;;;0.83;0.83;;;;;;;;;;4924564;28;1038836;-61
2023/09/02 01:41:54;;;;;;;1.13;1.02;;;;;;;;;;4953645;28;20198;-61
2023/09/02 01:44:23;;;;;;;2.72;0.80;;;;;;;;;;4955359;28;20209;-61
2023/09/02 01:46:51;;;;;;;1.08;0.90;;;;;;;;;;4957254;28;20210;-61
2023/09/02 01:49:18;;;;;;;3.50;1.00;;;;;;;;;;4948527;28;20222;-61
2023/09/02 01:51:45;;;;;;;2.38;1.00;;;;;;;;;;4951082;28;20235;-61
2023/09/02 01:54:12;;;;;;;6.32;0.95;;;;;;;;;;4951201;28;20289;-61
2023/09/02 01:56:39;;;;;;;0.90;0.90;;;;;;;;;;4947307;28;20207;-61
2023/09/02 01:59:06;;;;;;;6.40;1.20;;;;;;;;;;4945196;28;20219;-61
2023/09/02 02:01:35;;;;;;;2.85;1.00;;;;;;;;;;4946019;28;20307;-61
2023/09/02 02:04:06;;;;;;;0.90;0.90;;;;;;;;;;4952011;28;20211;-59
2023/09/02 02:06:33;;;;;;;0.93;0.93;;;;;;;;;;4945997;28;20269;-61
2023/09/02 02:09:04;;;;;;;4.55;1.40;;;;;;;;;;4945606;28;20203;-61
2023/09/02 02:11:32;;;;;;;0.73;0.73;;;;;;;;;;4966251;28;20203;-61
2023/09/02 02:14:02;;;;;;;2.47;1.00;;;;;;;;;;4956319;28;20211;-62
2023/09/02 02:16:29;;;;;;;2.05;1.05;;;;;;;;;;4963911;28;20210;-61
2023/09/02 02:18:58;;;;;;;1.58;1.45;;;;;;;;;;4949879;28;20207;-62
2023/09/02 02:21:25;;;;;;;4.03;1.10;;;;;;;;;;4946724;28;20238;-61
2023/09/02 02:23:52;;;;;;;3.65;1.10;;;;;;;;;;4949185;28;20210;-59
2023/09/02 02:26:19;;;;;;;5.22;1.73;;;;;;;;;;4964977;28;20230;-61
2023/09/02 02:28:46;;;;;;;1.13;1.13;;;;;;;;;;4968532;28;20213;-61
2023/09/02 02:31:13;;;;;;;2.20;0.90;;;;;;;;;;4954552;28;20207;-61
2023/09/02 02:33:40;;;;;;;3.40;1.00;;;;;;;;;;4958095;28;20233;-61
2023/09/02 02:36:09;;;;;;;1.58;1.25;;;;;;;;;;4947114;29;20207;-61
2023/09/02 02:38:36;;;;;;;1.13;1.13;;;;;;;;;;4949870;28;20330;-61
2023/09/02 02:41:04;;;;;;;2.53;0.80;;;;;;;;;;4955207;28;20261;-61
2023/09/02 02:43:31;;;;;;;2.72;0.98;;;;;;;;;;4955589;28;20199;-61
2023/09/02 02:45:58;;;;;;;3.80;0.90;;;;;;;;;;4945921;28;20225;-61
2023/09/02 02:48:28;;;;;;;0.77;0.77;;;;;;;;;;4952709;28;20210;-61
2023/09/02 02:50:55;;;;;;;0.88;0.88;;;;;;;;;;4945056;28;20215;-61
2023/09/02 02:53:23;;;;;;;1.98;0.95;;;;;;;;;;4962483;28;20249;-61
2023/09/02 02:55:50;;;;;;;1.42;0.80;;;;;;;;;;4954306;28;20242;-61
2023/09/02 02:58:17;;;;;;;1.70;1.00;;;;;;;;;;4949012;28;20307;-61
2023/09/02 03:00:46;;;;;;;2.47;1.08;;;;;;;;;;4949398;28;20215;-61
2023/09/02 03:03:13;;;;;;;1.00;1.00;;;;;;;;;;4962277;28;20297;-62
2023/09/02 03:05:41;;;;;;;1.13;1.05;;;;;;;;;;4966381;28;20211;-61
2023/09/02 03:08:08;;;;;;;2.28;1.30;;;;;;;;;;4955633;28;20214;-61
2023/09/02 03:10:37;;;;;;;4.75;1.00;;;;;;;;;;4948564;28;20216;-61
2023/09/02 03:13:04;;;;;;;0.82;0.82;;;;;;;;;;4946022;28;20638;-61
2023/09/02 03:15:31;;;;;;;2.00;0.80;;;;;;;;;;4951399;28;20203;-61
2023/09/02 03:17:58;;;;;;;3.90;0.98;;;;;;;;;;4953324;28;20219;-61
2023/09/02 03:20:25;;;;;;;1.92;1.00;;;;;;;;;;4947777;28;20211;-61
2023/09/02 03:22:52;;;;;;;2.90;1.00;;;;;;;;;;4950948;28;20210;-61
2023/09/02 03:25:19;;;;;;;1.90;1.05;;;;;;;;;;4944747;28;20207;-61
2023/09/02 03:27:48;;;;;;;4.13;1.50;;;;;;;;;;4942737;28;20203;-61
2023/09/02 03:30:15;;;;;;;2.72;0.90;;;;;;;;;;4942905;28;20211;-61
2023/09/02 03:32:42;;;;;;;1.10;0.90;;;;;;;;;;4944532;28;20571;-61
2023/09/02 03:35:09;;;;;;;2.95;1.08;;;;;;;;;;4955790;28;20285;-61
2023/09/02 03:37:36;;;;;;;6.25;1.10;;;;;;;;;;4947786;28;20207;-61
2023/09/02 03:40:04;;;;;;;5.30;1.10;;;;;;;;;;4957290;28;20242;-61
2023/09/02 03:42:31;;;;;;;1.63;0.80;;;;;;;;;;4955443;28;20199;-61
2023/09/02 03:44:59;;;;;;;3.00;1.00;;;;;;;;;;4953334;28;20209;-58
2023/09/02 03:47:31;;;;;;;3.25;1.10;;;;;;;;;;4953893;28;20702;-61
2023/09/02 03:49:58;;;;;;;2.17;0.98;;;;;;;;;;4955399;28;20242;-61
2023/09/02 03:52:25;;;;;;;3.10;1.10;;;;;;;;;;4954117;28;20229;-61
2023/09/02 03:54:52;;;;;;;3.60;1.00;;;;;;;;;;4956111;28;20214;-61
2023/09/02 03:57:19;;;;;;;5.28;1.20;;;;;;;;;;4945963;28;20199;-61
2023/09/02 03:59:46;;;;;;;7.22;1.30;;;;;;;;;;4959231;28;20913;-61
2023/09/02 04:02:14;;;;;;;1.00;1.00;;;;;;;;;;4957461;28;20203;-61
2023/09/02 04:04:41;;;;;;;3.90;1.35;;;;;;;;;;4958353;28;20218;-61
2023/09/02 04:07:08;;;;;;;5.15;0.90;;;;;;;;;;4942360;28;20207;-61
2023/09/02 04:09:35;;;;;;;1.00;1.00;;;;;;;;;;4952898;28;20210;-61
2023/09/02 04:12:02;;;;;;;1.17;1.17;;;;;;;;;;4963501;28;20215;-62
2023/09/02 04:14:29;;;;;;;1.98;1.10;;;;;;;;;;4953582;28;20230;-61
2023/09/02 04:16:56;;;;;;;0.90;0.90;;;;;;;;;;4965943;28;20213;-61
2023/09/02 04:19:25;;;;;;;1.77;0.82;;;;;;;;;;4965361;28;20700;-61
2023/09/02 04:21:53;;;;;;;3.05;1.25;;;;;;;;;;4966729;28;20673;-61
2023/09/02 04:24:20;;;;;;;1.67;1.23;;;;;;;;;;4951530;28;20329;-61
2023/09/02 04:26:47;;;;;;;1.05;1.05;;;;;;;;;;4947653;28;20282;-62
2023/09/02 04:29:14;;;;;;;2.10;0.95;;;;;;;;;;4966289;28;20673;-61
2023/09/02 04:31:41;;;;;;;0.90;0.90;;;;;;;;;;4953544;28;20214;-61
2023/09/02 04:34:08;;;;;;;1.10;1.10;;;;;;;;;;4955889;28;20349;-61
2023/09/02 04:36:37;;;;;;;1.20;1.10;;;;;;;;;;4947636;28;20241;-61
2023/09/02 04:39:04;;;;;;;0.77;0.77;;;;;;;;;;4964101;28;20723;-62
2023/09/02 04:41:31;;;;;;;1.00;1.00;;;;;;;;;;4951709;28;20266;-61
2023/09/02 04:43:58;;;;;;;1.00;1.00;;;;;;;;;;4947888;28;20292;-61
2023/09/02 04:46:25;;;;;;;0.90;0.90;;;;;;;;;;4958558;28;20198;-62
2023/09/02 04:48:54;;;;;;;1.30;0.90;;;;;;;;;;4952383;28;20215;-61
2023/09/02 04:51:21;;;;;;;2.70;1.27;;;;;;;;;;4945419;28;20207;-61
2023/09/02 04:53:49;;;;;;;0.98;0.98;;;;;;;;;;4946623;28;20720;-62
2023/09/02 04:56:16;;;;;;;1.30;1.20;;;;;;;;;;4954319;28;20215;-61
2023/09/02 04:58:43;;;;;;;2.25;0.90;;;;;;;;;;4952999;28;20217;-61
2023/09/02 05:01:11;;;;;;;1.05;1.05;;;;;;;;;;4958491;28;20217;-62
2023/09/02 05:03:38;;;;;;;2.92;1.08;;;;;;;;;;4947401;28;20207;-61
2023/09/02 05:06:07;;;;;;;1.02;1.02;;;;;;;;;;4959822;28;20242;-61
2023/09/02 05:08:35;;;;;;;2.05;0.80;;;;;;;;;;4952217;28;20294;-61
2023/09/02 05:11:04;;;;;;;6.10;1.02;;;;;;;;;;4950803;28;20206;-61
2023/09/02 05:13:31;;;;;;;1.23;1.10;;;;;;;;;;4956888;28;20297;-61
2023/09/02 05:15:58;;;;;;;3.38;1.30;;;;;;;;;;4932249;28;20290;-61
2023/09/02 05:18:25;;;;;;;3.17;1.20;;;;;;;;;;4964509;28;20214;-61
2023/09/02 05:20:56;;;;;;;1.02;0.95;;;;;;;;;;4945069;29;20218;-61
2023/09/02 05:23:23;;;;;;;3.63;1.27;;;;;;;;;;4946920;28;20310;-65
2023/09/02 05:25:54;;;;;;;1.10;1.10;;;;;;;;;;4956796;28;20217;-62
2023/09/02 05:28:22;;;;;;;1.85;1.23;;;;;;;;;;4944885;28;20207;-62
2023/09/02 05:30:49;;;;;;;1.23;1.15;;;;;;;;;;4946277;28;20211;-62
2023/09/02 05:33:16;;;;;;;3.88;1.30;;;;;;;;;;4944297;28;20235;-62
2023/09/02 05:35:43;;;;;;;1.00;1.00;;;;;;;;;;4946656;28;20207;-62
2023/09/02 05:38:10;;;;;;;7.18;1.10;;;;;;;;;;4946252;28;20346;-62
2023/09/02 05:40:40;;;;;;;2.85;1.02;;;;;;;;;;4947546;28;20245;-62
2023/09/02 05:43:07;;;;;;;1.00;1.00;;;;;;;;;;4941436;28;20262;-62
2023/09/02 05:45:35;;;;;;;1.80;1.00;;;;;;;;;;4956819;28;20202;-63
2023/09/02 05:48:02;;;;;;;1.30;1.20;;;;;;;;;;4947843;28;20204;-62
2023/09/02 05:50:29;;;;;;;0.77;0.77;;;;;;;;;;4944984;28;20262;-61
2023/09/02 05:52:56;;;;;;;1.02;0.82;;;;;;;;;;4944533;28;20218;-61
2023/09/02 05:55:24;;;;;;;0.90;0.90;;;;;;;;;;4948594;28;20294;-60
2023/09/02 05:57:51;;;;;;;1.50;1.40;;;;;;;;;;4951568;28;20690;-61
2023/09/02 06:00:18;;;;;;;1.65;1.23;;;;;;;;;;4956151;28;20254;-61
2023/09/02 06:02:46;;;;;;;1.75;1.30;;;;;;;;;;4951042;28;20214;-61
2023/09/02 06:05:13;;;;;;;5.70;1.30;;;;;;;;;;4958021;28;20207;-63
2023/09/02 06:07:40;;;;;;;1.10;1.10;;;;;;;;;;4950020;28;20204;-60
2023/09/02 06:10:08;;;;;;;1.70;1.30;;;;;;;;;;4949303;28;20804;-60
2023/09/02 06:12:35;;;;;;;1.20;1.20;;;;;;;;;;4961011;28;20230;-61
2023/09/02 06:15:02;;;;;;;2.58;1.40;;;;;;;;;;4941716;28;20573;-61
2023/09/02 06:17:31;;;;;;;1.95;1.48;;;;;;;;;;4950190;28;20555;-60
2023/09/02 06:20:00;;;;;;;2.90;1.83;;;;;;;;;;4953263;28;20258;-61
2023/09/02 06:22:27;;;;;;;2.90;1.20;;;;;;;;;;4945432;28;20207;-61
2023/09/02 06:24:55;;;;;;;2.35;2.28;;;;;;;;;;4955528;28;20206;-60
2023/09/02 06:27:22;;;;;;;2.55;2.20;;;;;;;;;;4963265;28;20248;-60
2023/09/02 06:29:49;;;;;;;3.17;1.73;;;;;;;;;;4948913;28;20587;-60
2023/09/02 06:32:16;;;;;;;3.10;2.40;;;;;;;;;;4950004;28;20214;-61
2023/09/02 06:34:43;;;;;;;2.42;2.33;;;;;;;;;;4950546;28;20245;-60
2023/09/02 06:37:11;;;;;;;2.45;2.33;;;;;;;;;;4965646;28;20225;-61
2023/09/02 06:39:38;;;;;;;2.90;2.70;;;;;;;;;;4956216;28;20238;-61
2023/09/02 06:42:06;;;;;;;3.38;2.60;;;;;;;;;;4955555;28;20215;-61
2023/09/02 06:44:33;;;;;;;4.30;1.83;;;;;;;;;;4948544;28;20207;-61
2023/09/02 06:47:00;;;;;;;3.28;2.92;;;;;;;;;;4949736;28;20219;-61
2023/09/02 06:49:27;;;;;;;2.50;2.40;;;;;;;;;;4957685;28;20207;-62
2023/09/02 06:51:54;;;;;;;3.00;2.75;;;;;;;;;;4945679;28;20220;-62
2023/09/02 06:54:22;;;;;;;2.97;2.88;;;;;;;;;;4945103;28;20231;-62
2023/09/02 06:56:50;;;;;;;7.03;2.83;;;;;;;;;;4945256;28;20207;-62
2023/09/02 06:59:17;;;;;;;2.95;2.60;;;;;;;;;;4949735;28;20245;-62
2023/09/02 07:01:44;;;;;;;2.90;2.80;;;;;;;;;;4956042;28;20207;-61
2023/09/02 07:04:11;;;;;;;3.40;3.30;;;;;;;;;;4944700;28;20208;-62
2023/09/02 07:06:38;;;;;;;3.33;3.17;;;;;;;;;;4945394;28;20222;-62
2023/09/02 07:09:05;;;;;;;3.97;3.72;;;;;;;;;;4954976;28;20683;-62
2023/09/02 07:11:34;;;;;;;3.50;3.30;;;;;;;;;;4959463;28;20207;-62
2023/09/02 07:14:01;;;;;;;3.67;3.47;;;;;;;;;;4958017;28;20230;-62
2023/09/02 07:16:28;;;;;;;4.47;3.25;;;;;;;;;;4958673;28;20222;-62
2023/09/02 07:18:55;;;;;;;2.75;2.67;;;;;;;;;;4967614;28;20210;-62
2023/09/02 07:21:23;;;;;;;2.90;2.80;;;;;;;;;;4963494;28;20783;-62
2023/09/02 07:23:50;;;;;;;3.13;3.03;;;;;;;;;;4956169;28;20700;-61
2023/09/02 07:26:17;;;;;;;3.38;3.28;;;;;;;;;;4944625;28;20199;-60
2023/09/02 07:28:45;;;;;;;3.67;3.58;;;;;;;;;;4956268;28;20217;-60
2023/09/02 07:31:12;;;;;;;2.88;2.78;;;;;;;;;;4955383;28;20211;-60
2023/09/02 07:33:39;;;;;;;3.40;3.22;;;;;;;;;;4943568;28;20231;-60
2023/09/02 07:36:10;;;;;;;3.13;2.95;;;;;;;;;;4945772;28;20221;-61
2023/09/02 07:38:37;;;;;;;3.30;3.10;;;;;;;;;;4963539;28;20233;-60
2023/09/02 07:41:04;;;;;;;3.13;3.03;;;;;;;;;;4948384;28;20246;-60
2023/09/02 07:43:31;;;;;;;4.45;2.78;;;;;;;;;;4948235;29;20211;-60
2023/09/02 07:46:00;;;;;;;3.33;3.13;;;;;;;;;;4946269;29;20246;-60
2023/09/02 07:48:30;;;;;;;4.80;4.43;;;;;;;;;;4959015;28;20203;-61
2023/09/02 07:50:57;;;;;;;3.72;3.53;;;;;;;;;;4948064;28;20194;-60
2023/09/02 07:53:24;;;;;;;3.13;2.92;;;;;;;;;;4945841;28;20727;-60
2023/09/02 07:55:51;;;;;;;3.53;3.40;;;;;;;;;;4930439;28;20378;-60
2023/09/02 07:58:18;;;;;;;3.22;3.13;;;;;;;;;;4957048;28;20214;-60
2023/09/02 08:00:45;;;;;;;3.40;3.30;;;;;;;;;;4958373;28;20692;-60
2023/09/02 08:03:14;;;;;;;2.90;2.80;;;;;;;;;;4949143;28;20214;-64
2023/09/02 08:05:41;;;;;;;3.97;3.78;;;;;;;;;;4942277;29;20211;-61
2023/09/02 08:08:08;;;;;;;2.97;2.88;;;;;;;;;;4958520;28;20740;-63
2023/09/02 08:10:36;;;;;;;3.03;2.92;;;;;;;;;;4946617;28;20215;-62
2023/09/02 08:13:03;;;;;;;3.05;2.95;;;;;;;;;;4945760;29;20222;-66
2023/09/02 08:15:30;;;;;;;2.70;2.67;;;;;;;;;;4947506;29;20269;-61
2023/09/02 08:17:57;;;;;;;2.60;2.50;;;;;;;;;;4963740;28;20206;-62
2023/09/02 08:20:25;;;;;;;2.70;2.50;;;;;;;;;;4966686;28;20218;-61
2023/09/02 08:22:52;;;;;;;2.30;2.22;;;;;;;;;;4956450;28;20229;-61
2023/09/02 08:25:19;;;;;;;4.03;2.60;;;;;;;;;;4964339;28;20210;-61
2023/09/02 08:27:46;;;;;;;2.35;2.25;;;;;;;;;;4952124;28;20673;-61
2023/09/02 08:30:14;;;;;;;2.10;2.10;;;;;;;;;;4952762;28;20234;-61
2023/09/02 08:32:41;;;;;;;2.25;2.15;;;;;;;;;;4950604;28;20211;-62
2023/09/02 08:35:08;;;;;;;1.80;1.80;;;;;;;;;;4949291;28;20257;-63
2023/09/02 08:37:38;;;;;;;1.98;1.88;;;;;;;;;;4946699;28;20451;-59
2023/09/02 08:40:05;;;;;;;1.80;1.70;;;;;;;;;;4940840;28;20250;-60
2023/09/02 08:42:34;;;;;;;4.75;1.80;;;;;;;;;;4943211;28;20207;-60
2023/09/02 08:45:04;;;;;;;2.35;1.50;;;;;;;;;;4941713;29;20222;-60
2023/09/02 08:47:31;;;;;;;1.75;1.58;;;;;;;;;;4955119;28;20217;-60
2023/09/02 08:49:59;;;;;;;1.60;1.60;;;;;;;;;;4954201;28;20688;-60
2023/09/02 08:52:26;;;;;;;1.20;1.20;;;;;;;;;;4956144;28;20217;-58
2023/09/02 08:54:55;;;;;;;1.33;1.33;;;;;;;;;;4950750;28;20239;-59
2023/09/02 08:57:22;;;;;;;4.97;1.27;;;;;;;;;;4945536;28;20298;-60
2023/09/02 08:59:49;;;;;;;1.58;1.48;;;;;;;;;;4945021;28;20211;-60
2023/09/02 09:02:17;;;;;;;1.48;1.30;;;;;;;;;;4943658;28;20207;-61
2023/09/02 09:04:48;;;;;;;1.15;1.15;;;;;;;;;;4940517;29;20761;-60
2023/09/02 09:07:15;;;;;;;1.30;1.30;;;;;;;;;;4945681;28;20290;-61
2023/09/02 09:09:43;;;;;;;1.10;1.10;;;;;;;;;;4945752;28;20203;-61
2023/09/02 09:12:13;;;;;;;1.10;1.10;;;;;;;;;;4944420;28;20207;-61
2023/09/02 09:14:43;;;;;;;1.27;1.20;;;;;;;;;;4943360;28;20705;-60
2023/09/02 09:17:10;;;;;;;1.15;1.15;;;;;;;;;;4944525;28;20564;-60
2023/09/02 09:19:37;;;;;;;1.02;1.02;;;;;;;;;;4946321;29;20269;-61
2023/09/02 09:22:05;;;;;;;1.40;1.30;;;;;;;;;;4944583;28;20211;-64
2023/09/02 09:24:32;;;;;;;1.42;1.02;;;;;;;;;;4941560;28;20580;-63
2023/09/02 09:27:00;;;;;;;1.05;1.00;;;;;;;;;;4943185;28;20215;-62
2023/09/02 09:29:37;;;;;;;1.10;1.10;;;;;;;;;;4941583;28;20680;-59
2023/09/02 09:32:10;;;;;;;0.93;0.93;;;;;;;;;;4947099;28;20211;-60
2023/09/02 09:34:38;;;;;;;1.20;1.20;;;;;;;;;;4961846;28;20503;-59
2023/09/02 09:37:07;;;;;;;0.93;0.90;;;;;;;;;;4946856;28;20218;-60
2023/09/02 09:39:43;;;;;;;1.15;1.10;;;;;;;;;;4957357;28;20241;-63
2023/09/02 09:42:11;;;;;;;0.90;0.90;;;;;;;;;;4959414;28;20213;-62
2023/09/02 09:44:51;;;;;;;1.23;1.13;;;;;;;;;;4949678;29;20207;-63
2023/09/02 09:47:18;;;;;;;2.05;1.23;;;;;;;;;;4947833;29;20214;-61
2023/09/02 09:49:49;;;;;;;1.15;0.90;;;;;;;;;;4955338;28;20215;-63
2023/09/02 09:52:16;;;;;;;1.60;0.70;;;;;;;;;;4967244;28;20210;-63
2023/09/02 09:54:45;;;;;;;2.42;0.88;;;;;;;;;;4957724;28;20231;-62
2023/09/02 09:57:15;;;;;;;1.05;0.93;;;;;;;;;;4954328;28;20215;-63
2023/09/02 09:59:50;;;;;;;0.60;0.60;;;;;;;;;;4950343;28;20244;-63
2023/09/02 10:02:18;;;;;;;1.20;0.70;;;;;;;;;;4944277;29;20222;-65
2023/09/02 10:04:51;;;;;;;1.10;0.68;;;;;;;;;;4957371;28;20202;-63
2023/09/02 10:07:20;;;;;;;0.70;0.70;;;;;;;;;;4946326;28;20242;-62
2023/09/02 10:09:47;;;;;;;1.20;0.90;;;;;;;;;;4965331;28;20213;-61
2023/09/02 10:12:15;;;;;;;0.70;0.70;;;;;;;;;;4954943;28;20203;-61
2023/09/02 10:14:43;;;;;;;1.38;0.70;;;;;;;;;;4955145;28;20226;-63
2023/09/02 10:17:10;;;;;;;0.70;0.70;;;;;;;;;;4963041;28;20206;-63
2023/09/02 10:19:39;;;;;;;0.93;0.60;;;;;;;;;;4966659;28;20218;-63
2023/09/02 10:22:06;;;;;;;0.70;0.70;;;;;;;;;;4966505;28;20218;-63
2023/09/02 10:24:34;;;;;;;0.70;0.70;;;;;;;;;;4966619;28;20222;-65
2023/09/02 10:27:04;;;;;;;0.60;0.60;;;;;;;;;;4965129;28;20246;-62
2023/09/02 10:29:35;;;;;;;0.63;0.63;;;;;;;;;;4948877;28;20211;-60
2023/09/02 10:32:04;;;;;;;1.23;1.23;;;;;;;;;;4945637;29;20313;-60
2023/09/02 10:34:34;;;;;;;2.38;2.28;;;;;;;;;;4967680;28;20237;-61
2023/09/02 10:37:06;;;;;;;3.08;2.28;;;;;;;;;;4966960;28;20222;-61
2023/09/02 10:39:42;;;;;;;0.50;0.50;;;;;;;;;;4955718;28;20262;-61
2023/09/02 10:42:10;;;;;;;0.60;0.60;;;;;;;;;;4945471;28;20211;-62
2023/09/02 10:44:37;;;;;;;0.50;0.50;;;;;;;;;;4964182;28;20202;-62
2023/09/02 10:47:05;;;;;;;0.82;0.63;;;;;;;;;;4945144;28;20211;-62
2023/09/02 10:49:33;;;;;;;0.73;0.60;;;;;;;;;;4952798;28;20202;-62
2023/09/02 10:52:00;;;;;;;0.50;0.50;;;;;;;;;;4936604;28;20223;-63
2023/09/02 10:54:49;;;;;;;0.60;0.60;;;;;;;;;;4944998;29;20227;-62
2023/09/02 10:57:16;;;;;;;0.60;0.60;;;;;;;;;;4945903;29;20223;-62
2023/09/02 10:59:43;;;;;;;0.57;0.57;;;;;;;;;;4950433;28;20215;-62
2023/09/02 11:02:11;;;;;;;0.50;0.50;;;;;;;;;;4955410;28;20259;-62
2023/09/02 11:04:55;;;;;;;0.50;0.50;;;;;;;;;;4947544;29;20219;-62
2023/09/02 11:07:29;;;;;;;0.40;0.40;;;;;;;;;;4943979;28;20253;-63
2023/09/02 11:09:58;;;;;;;0.50;0.50;;;;;;;;;;4943233;29;20222;-62
2023/09/02 11:12:25;;;;;;;0.40;0.40;;;;;;;;;;4942060;28;20211;-62
2023/09/02 11:15:16;;;;;;;0.60;0.60;;;;;;;;;;4942186;29;20231;-62
2023/09/02 11:17:43;;;;;;;0.52;0.52;;;;;;;;;;4949679;28;20210;-63
2023/09/02 11:20:11;;;;;;;0.50;0.50;;;;;;;;;;4967091;28;20217;-63
2023/09/02 11:22:51;;;;;;;0.50;0.50;;;;;;;;;;4966202;28;20261;-62
2023/09/02 11:25:29;;;;;;;0.43;0.43;;;;;;;;;;4946628;28;20217;-63
2023/09/02 11:27:56;;;;;;;0.40;0.40;;;;;;;;;;4947443;29;20218;-62
2023/09/02 11:30:23;;;;;;;2.65;0.40;;;;;;;;;;4942767;28;20293;-65
2023/09/02 11:32:51;;;;;;;0.50;0.50;;;;;;;;;;4955322;28;20244;-60
2023/09/02 11:35:24;;;;;;;14.13;7.32;;;;;;;;;;4964619;28;20349;-61
2023/09/02 11:37:51;;;;;;;1.10;1.00;;;;;;;;;;4950595;28;20281;-62
2023/09/02 11:40:18;;;;;;;0.75;0.73;;;;;;;;;;4945301;29;20250;-63
2023/09/02 11:42:50;;;;;;;0.40;0.40;;;;;;;;;;4947266;29;20211;-61
2023/09/02 11:45:17;;;;;;;2.67;0.90;;;;;;;;;;4945650;29;20642;-62
2023/09/02 11:47:44;;;;;;;2.63;1.85;;;;;;;;;;4942096;29;20558;-62
2023/09/02 11:50:15;;;;;;;1.13;1.13;;;;;;;;;;4942127;29;20215;-61
2023/09/02 11:52:42;;;;;;;0.85;0.40;;;;;;;;;;4940420;28;20203;-63
2023/09/02 11:55:13;;;;;;;0.15;0.15;;;;;;;;;;4941629;29;20250;-61
2023/09/02 11:57:41;;;;;;;0.60;0.60;;;;;;;;;;4943292;28;20219;-67
2023/09/02 12:00:15;;;;;;;0.95;0.55;;;;;;;;;;4943630;29;20274;-66
2023/09/02 12:02:42;;;;;;;1.88;0.70;;;;;;;;;;4946462;29;20206;-65
2023/09/02 12:05:09;;;;;;;32.08;7.43;;;;;;;;;;4944679;28;20207;-61
2023/09/02 12:07:37;;;;;;;0.90;0.80;;;;;;;;;;4946381;29;20441;-66
2023/09/02 12:10:08;;;;;;;6.45;3.92;;;;;;;;;;4945743;28;20727;-61
2023/09/02 12:12:35;;;;;;;0.90;0.90;;;;;;;;;;4946768;29;20239;-62
2023/09/02 12:15:03;;;;;;;0.60;0.60;;;;;;;;;;4946353;29;20290;-72
2023/09/02 12:17:32;;;;;;;1.00;0.55;;;;;;;;;;4941811;29;20242;-61
2023/09/02 12:19:59;;;;;;;0.70;0.70;;;;;;;;;;4943036;29;20669;-63
2023/09/02 12:22:26;;;;;;;0.50;0.50;;;;;;;;;;4941422;29;20222;-63
2023/09/02 12:24:53;;;;;;;1.88;0.75;;;;;;;;;;4942143;28;20211;-64
2023/09/02 12:27:20;;;;;;;0.60;0.60;;;;;;;;;;4946677;28;20211;-72
2023/09/02 12:29:54;;;;;;;0.82;0.82;;;;;;;;;;4957983;28;20219;-65
2023/09/02 12:32:21;;;;;;;3.30;2.13;;;;;;;;;;4944012;28;20585;-64
2023/09/02 12:34:50;;;;;;;0.70;0.70;;;;;;;;;;4959777;28;20207;-66
2023/09/02 12:37:18;;;;;;;0.65;0.60;;;;;;;;;;4944857;28;20215;-65
2023/09/02 12:39:45;;;;;;;0.50;0.50;;;;;;;;;;4946854;28;20672;-62
2023/09/02 12:42:16;;;;;;;0.82;0.60;;;;;;;;;;4942108;28;20206;-64
2023/09/02 12:44:53;;;;;;;0.77;0.70;;;;;;;;;;4940979;29;20211;-65
2023/09/02 12:47:21;;;;;;;0.68;0.68;;;;;;;;;;4943589;29;20218;-64
2023/09/02 12:49:48;;;;;;;0.50;0.50;;;;;;;;;;4946166;29;20619;-62
2023/09/02 12:52:17;;;;;;;0.50;0.50;;;;;;;;;;4943354;28;20226;-61
2023/09/02 12:54:47;;;;;;;1.60;0.50;;;;;;;;;;4945608;28;20210;-62
2023/09/02 12:57:15;;;;;;;0.57;0.57;;;;;;;;;;4944288;29;20219;-62
2023/09/02 12:59:42;;;;;;;0.40;0.40;;;;;;;;;;4942677;29;20223;-62
2023/09/02 13:02:09;;;;;;;0.70;0.55;;;;;;;;;;4940623;29;20218;-61
2023/09/02 13:04:37;;;;;;;0.47;0.47;;;;;;;;;;4943234;28;20245;-61
2023/09/02 13:07:04;;;;;;;0.50;0.50;;;;;;;;;;4946095;29;20666;-64
2023/09/02 13:09:33;;;;;;;0.40;0.40;;;;;;;;;;4946544;29;20241;-62
2023/09/02 13:12:01;;;;;;;0.55;0.50;;;;;;;;;;4944919;29;20206;-62
2023/09/02 13:14:28;;;;;;;2.45;0.50;;;;;;;;;;4948180;29;20207;-61
2023/09/02 13:16:55;;;;;;;0.65;0.65;;;;;;;;;;4947894;29;20234;-62
2023/09/02 13:19:23;;;;;;;0.68;0.50;;;;;;;;;;4949764;29;20215;-61
2023/09/02 13:21:50;;;;;;;0.50;0.50;;;;;;;;;;4949340;29;20249;-61
2023/09/02 13:24:18;;;;;;;0.85;0.70;;;;;;;;;;4947459;29;20207;-61
2023/09/02 13:26:47;;;;;;;0.47;0.43;;;;;;;;;;4949467;29;20215;-61
2023/09/02 13:29:14;;;;;;;0.60;0.60;;;;;;;;;;4948116;29;20215;-61
2023/09/02 13:31:41;;;;;;;0.65;0.65;;;;;;;;;;4949266;29;20226;-61
2023/09/02 13:34:08;;;;;;;0.70;0.70;;;;;;;;;;4947113;28;20677;-61
2023/09/02 13:36:35;;;;;;;0.52;0.50;;;;;;;;;;4949131;29;20242;-61
2023/09/02 13:39:03;;;;;;;0.70;0.70;;;;;;;;;;4949121;29;20238;-61
2023/09/02 13:41:30;;;;;;;0.60;0.60;;;;;;;;;;4947783;29;20239;-60
2023/09/02 13:43:58;;;;;;;0.50;0.50;;;;;;;;;;4946027;29;20214;-61
2023/09/02 13:46:25;;;;;;;0.95;0.60;;;;;;;;;;4943328;28;20648;-60
2023/09/02 13:48:52;;;;;;;0.57;0.57;;;;;;;;;;4936249;29;20270;-61
2023/09/02 13:51:22;;;;;;;0.50;0.50;;;;;;;;;;4943813;29;20211;-61
2023/09/02 13:53:49;;;;;;;1.65;0.60;;;;;;;;;;4943925;29;20310;-62
2023/09/02 13:56:16;;;;;;;0.40;0.40;;;;;;;;;;4945934;29;20238;-61
2023/09/02 13:58:46;;;;;;;0.57;0.57;;;;;;;;;;4949136;29;20256;-63
2023/09/02 14:01:14;;;;;;;0.90;0.90;;;;;;;;;;4947317;29;20961;-61
2023/09/02 14:03:43;;;;;;;0.70;0.70;;;;;;;;;;4948304;29;20892;-62
2023/09/02 14:06:10;;;;;;;0.50;0.50;;;;;;;;;;4946300;28;20207;-60
2023/09/02 14:08:38;;;;;;;0.70;0.70;;;;;;;;;;4948660;29;20211;-60
2023/09/02 14:11:06;;;;;;;0.60;0.60;;;;;;;;;;4947102;29;20677;-61
2023/09/02 14:13:36;;;;;;;0.47;0.47;;;;;;;;;;4948268;28;20226;-60
2023/09/02 14:16:04;;;;;;;0.60;0.60;;;;;;;;;;4947855;28;20229;-58
2023/09/02 14:18:32;;;;;;;0.40;0.40;;;;;;;;;;4948359;28;20293;-61
2023/09/02 14:20:59;;;;;;;0.60;0.45;;;;;;;;;;4945264;29;20207;-60
2023/09/02 14:23:26;;;;;;;0.60;0.60;;;;;;;;;;4943629;29;20220;-60
2023/09/02 14:25:53;;;;;;;2.38;1.25;;;;;;;;;;4944762;29;20214;-60
2023/09/02 14:28:21;;;;;;;0.40;0.40;;;;;;;;;;4948360;29;20324;-60
2023/09/02 14:30:48;;;;;;;0.40;0.40;;;;;;;;;;4948634;29;20757;-60
2023/09/02 14:33:15;;;;;;;0.90;0.50;;;;;;;;;;4946902;29;20253;-61
2023/09/02 14:35:43;;;;;;;0.70;0.70;;;;;;;;;;4948578;29;20226;-61
2023/09/02 14:38:10;;;;;;;0.57;0.57;;;;;;;;;;4946490;29;20239;-60
2023/09/02 14:40:37;;;;;;;0.90;0.60;;;;;;;;;;4947438;28;20239;-59
2023/09/02 14:43:05;;;;;;;0.38;0.38;;;;;;;;;;4947893;29;20230;-61
2023/09/02 14:45:32;;;;;;;0.60;0.60;;;;;;;;;;4943154;29;20222;-61
2023/09/02 14:48:00;;;;;;;0.40;0.40;;;;;;;;;;4945211;29;20211;-64